Jose de San Martin, Argentina
Current Conditions -  °F | °C
As of 12:00 AM on Wednesday 26 Nov 2014 (Local Time) from SCAP Reporting Station
Scattered Clouds Scattered Clouds  
Wind Chill: 11°   Ceiling: Unl
Heat Index: 11°   Visibility: NA
Dew Point:   Wind: 9mph
Humidity: 54%   Direction: 230°SW
Pressure: 30.24"   Gusts: NA
Location:  44.03°S, 70.48°W
Report Text: SCAP 260300Z AUTO 23008KT 190V270 //// // SCT048 11/02 Q1024
Loading
Personal Weather Stations






























Interactive Weather Map New forecast layout! Learn more

10-Day Weather Forecast

Advertisements
Track Severe Weather on mobile